createdAt,value
2022-10-03T00:00:14.447Z,13.90
2022-10-03T00:03:31.027Z,13.76
2022-10-03T00:06:09.462Z,13.65
2022-10-03T00:09:01.592Z,13.57
2022-10-03T00:11:48.994Z,13.51
2022-10-03T00:14:28.255Z,13.49
2022-10-03T00:17:07.166Z,13.48
2022-10-03T00:19:52.247Z,13.45
2022-10-03T00:22:36.678Z,13.43
2022-10-03T00:25:31.893Z,13.39
2022-10-03T00:28:19.898Z,13.39
2022-10-03T00:31:09.524Z,13.40
2022-10-03T00:34:01.461Z,13.44
2022-10-03T00:36:45.479Z,13.52
2022-10-03T00:39:45.409Z,13.57
2022-10-03T00:42:52.595Z,13.63
2022-10-03T00:45:42.484Z,13.64
2022-10-03T00:48:47.075Z,13.62
2022-10-03T00:51:49.172Z,13.60
2022-10-03T00:54:43.787Z,13.54
2022-10-03T00:57:38.984Z,13.49
2022-10-03T01:00:20.562Z,13.49
2022-10-03T01:03:10.806Z,13.52
2022-10-03T01:05:57.452Z,13.56
2022-10-03T01:08:59.039Z,13.58
2022-10-03T01:11:43.221Z,13.63
2022-10-03T01:14:28.879Z,13.66
2022-10-03T01:17:13.164Z,13.69
2022-10-03T01:20:20.068Z,13.70
2022-10-03T01:23:16.120Z,13.66
2022-10-03T01:25:52.392Z,13.68
2022-10-03T01:28:58.880Z,13.66
2022-10-03T01:31:42.209Z,13.57
2022-10-03T01:34:23.678Z,13.55
2022-10-03T01:37:06.535Z,13.46
2022-10-03T01:39:50.657Z,13.41
2022-10-03T01:42:36.916Z,13.37
2022-10-03T01:45:16.870Z,13.29
2022-10-03T01:47:51.676Z,13.29
2022-10-03T01:50:31.957Z,13.32
2022-10-03T01:53:09.852Z,13.25
2022-10-03T01:55:53.600Z,13.23
2022-10-03T01:58:36.433Z,13.21
2022-10-03T02:01:17.453Z,13.16
2022-10-03T02:03:56.154Z,13.18
2022-10-03T02:06:43.939Z,13.11
2022-10-03T02:09:28.888Z,13.06
2022-10-03T02:12:17.006Z,13.03
2022-10-03T02:15:00.649Z,13.09
2022-10-03T02:17:47.972Z,13.16
2022-10-03T02:20:31.548Z,13.17
2022-10-03T02:23:15.915Z,13.22
2022-10-03T02:26:16.027Z,13.22
2022-10-03T02:29:10.743Z,13.18
2022-10-03T02:32:13.407Z,13.17
2022-10-03T02:35:27.281Z,13.16
2022-10-03T02:38:19.697Z,13.16
2022-10-03T02:41:15.331Z,13.05
2022-10-03T02:44:16.558Z,13.05
2022-10-03T02:47:32.551Z,12.96
2022-10-03T02:50:49.291Z,12.99
2022-10-03T02:53:44.704Z,13.04
2022-10-03T02:56:48.307Z,13.07
2022-10-03T02:59:43.904Z,13.11
2022-10-03T03:02:41.535Z,13.07
2022-10-03T03:05:34.416Z,13.11
2022-10-03T03:08:29.152Z,13.12
2022-10-03T03:11:39.715Z,13.15
2022-10-03T03:14:50.610Z,13.18
2022-10-03T03:17:36.335Z,13.20
2022-10-03T03:20:23.152Z,13.17
2022-10-03T03:23:14.692Z,13.12
2022-10-03T03:26:23.527Z,13.13
2022-10-03T03:29:08.180Z,13.18
2022-10-03T03:31:51.454Z,13.16
2022-10-03T03:34:30.108Z,13.16
2022-10-03T03:37:09.864Z,13.10
2022-10-03T03:40:05.477Z,13.04
2022-10-03T03:42:53.813Z,13.02
2022-10-03T03:45:41.510Z,12.95
2022-10-03T03:48:31.219Z,12.90
2022-10-03T03:51:21.540Z,12.91
2022-10-03T03:54:12.942Z,12.83
2022-10-03T03:57:15.758Z,12.72
2022-10-03T04:00:05.101Z,12.71
2022-10-03T04:02:54.001Z,12.72
2022-10-03T04:05:48.347Z,12.66
2022-10-03T04:08:35.805Z,12.58
2022-10-03T04:11:22.746Z,12.55
2022-10-03T04:14:22.788Z,12.56
2022-10-03T04:17:38.659Z,12.51
2022-10-03T04:20:20.228Z,12.51
2022-10-03T04:23:14.178Z,12.55
2022-10-03T04:25:55.755Z,12.61
2022-10-03T04:28:48.205Z,12.62
2022-10-03T04:31:34.385Z,12.64
2022-10-03T04:34:26.271Z,12.68
2022-10-03T04:37:16.718Z,12.71
2022-10-03T04:39:58.659Z,12.74
2022-10-03T04:42:43.784Z,12.76
2022-10-03T04:45:35.068Z,12.78
2022-10-03T04:48:17.852Z,12.83
2022-10-03T04:51:04.439Z,12.91
2022-10-03T04:53:48.962Z,12.94
2022-10-03T04:56:32.546Z,12.89
2022-10-03T04:59:25.000Z,12.90
2022-10-03T05:02:03.432Z,12.91
2022-10-03T05:04:45.400Z,13.09
2022-10-03T05:07:27.007Z,13.19
2022-10-03T05:10:10.363Z,13.27
2022-10-03T05:12:55.241Z,13.36
2022-10-03T05:15:33.060Z,13.41
2022-10-03T05:18:15.459Z,13.41
2022-10-03T05:20:57.649Z,13.42
2022-10-03T05:23:46.251Z,13.39
2022-10-03T05:26:45.791Z,13.44
2022-10-03T05:29:34.004Z,13.44
2022-10-03T05:32:21.740Z,13.40
2022-10-03T05:35:08.631Z,13.45
2022-10-03T05:38:13.587Z,13.51
2022-10-03T05:40:52.328Z,13.66
2022-10-03T05:43:38.504Z,13.80
2022-10-03T05:46:23.864Z,13.96
2022-10-03T05:49:05.860Z,14.15
2022-10-03T05:51:52.945Z,14.23
2022-10-03T05:55:00.494Z,14.29
2022-10-03T05:57:59.447Z,14.36
2022-10-03T06:00:42.775Z,14.39
2022-10-03T06:03:38.527Z,14.39
2022-10-03T06:06:25.731Z,14.36
2022-10-03T06:09:18.629Z,14.40
2022-10-03T06:12:07.368Z,14.43
2022-10-03T06:15:03.118Z,14.36
2022-10-03T06:17:59.185Z,14.37
2022-10-03T06:21:07.604Z,14.43
2022-10-03T06:24:14.899Z,14.37
2022-10-03T06:27:04.799Z,14.43
2022-10-03T06:30:00.603Z,14.51
2022-10-03T06:33:04.129Z,14.57
2022-10-03T06:36:13.032Z,14.56
2022-10-03T06:39:31.441Z,14.58
2022-10-03T06:42:25.564Z,14.62
2022-10-03T06:45:51.341Z,14.68
2022-10-03T06:48:46.954Z,14.66
2022-10-03T06:51:48.172Z,14.68
2022-10-03T06:54:55.922Z,14.71
2022-10-03T06:57:44.330Z,14.75
2022-10-03T07:00:21.781Z,14.80
2022-10-03T07:03:21.738Z,14.78
2022-10-03T07:06:22.255Z,14.76
2022-10-03T07:09:48.486Z,14.82
2022-10-03T07:12:54.162Z,14.91
2022-10-03T07:16:25.962Z,14.92
2022-10-03T07:19:15.293Z,14.93
2022-10-03T07:22:21.552Z,14.96
2022-10-03T07:25:38.058Z,14.96
2022-10-03T07:28:39.912Z,14.99
2022-10-03T07:31:22.491Z,15.08
2022-10-03T07:34:22.945Z,15.21
2022-10-03T07:37:40.829Z,15.30
2022-10-03T07:40:48.508Z,15.32
2022-10-03T07:43:56.206Z,15.44
2022-10-03T07:46:54.681Z,15.55
2022-10-03T07:49:58.688Z,15.71
2022-10-03T07:52:54.780Z,15.83
2022-10-03T07:55:49.209Z,15.91
2022-10-03T07:58:44.310Z,16.10
2022-10-03T08:01:37.420Z,16.24
2022-10-03T08:05:04.220Z,16.35
2022-10-03T08:07:57.705Z,16.53
2022-10-03T08:10:51.420Z,16.63
2022-10-03T08:13:36.473Z,16.71
2022-10-03T08:16:29.279Z,16.74
2022-10-03T08:19:22.244Z,16.73
2022-10-03T08:22:07.023Z,16.79
2022-10-03T08:25:04.124Z,16.92
2022-10-03T08:27:53.185Z,16.93
2022-10-03T08:30:29.283Z,16.86
2022-10-03T08:33:19.116Z,16.83
2022-10-03T08:36:15.033Z,16.87
2022-10-03T08:39:24.211Z,16.94
2022-10-03T08:42:18.944Z,17.03
2022-10-03T08:45:34.388Z,17.12
2022-10-03T08:48:36.681Z,17.16
2022-10-03T08:51:50.324Z,17.24
2022-10-03T08:54:57.831Z,17.28
2022-10-03T08:57:49.523Z,17.28
2022-10-03T09:00:24.975Z,17.19
2022-10-03T09:03:36.889Z,17.25
2022-10-03T09:07:12.227Z,17.43
2022-10-03T09:10:18.363Z,17.61
2022-10-03T09:13:14.119Z,18.01
2022-10-03T09:16:16.187Z,18.49
2022-10-03T09:19:13.112Z,18.86
2022-10-03T09:22:23.716Z,19.14
2022-10-03T09:25:22.921Z,19.36
2022-10-03T09:28:27.614Z,19.58
2022-10-03T09:31:16.671Z,19.97
2022-10-03T09:34:15.892Z,20.18
2022-10-03T09:37:18.063Z,20.40
2022-10-03T09:40:25.876Z,20.51
2022-10-03T09:43:26.424Z,20.57
2022-10-03T09:46:35.984Z,20.66
2022-10-03T09:49:44.802Z,20.74
2022-10-03T09:52:35.088Z,20.90
2022-10-03T09:55:25.376Z,20.98
2022-10-03T09:58:21.016Z,21.13
2022-10-03T10:01:21.290Z,21.26
2022-10-03T10:04:32.625Z,21.35
2022-10-03T10:07:41.796Z,21.13
2022-10-03T10:11:04.647Z,20.74
2022-10-03T10:14:07.894Z,20.56
2022-10-03T10:17:11.439Z,20.70
2022-10-03T10:20:05.368Z,20.73
2022-10-03T10:23:08.164Z,20.83
2022-10-03T10:26:15.589Z,20.49
2022-10-03T10:29:27.136Z,20.49
2022-10-03T10:32:37.811Z,20.42
2022-10-03T10:35:44.696Z,20.41
2022-10-03T10:38:32.100Z,20.44
2022-10-03T10:41:38.019Z,20.55
2022-10-03T10:44:43.859Z,20.45
2022-10-03T10:47:42.408Z,20.36
2022-10-03T10:50:52.573Z,20.23
2022-10-03T10:53:55.239Z,20.12
2022-10-03T10:57:02.224Z,20.13
2022-10-03T11:00:19.199Z,19.95
2022-10-03T11:03:33.068Z,19.94
2022-10-03T11:06:44.319Z,19.99
2022-10-03T11:10:16.455Z,20.06
2022-10-03T11:13:41.477Z,20.07
2022-10-03T11:16:59.287Z,20.10
2022-10-03T11:20:18.839Z,20.01
2022-10-03T11:23:23.939Z,19.83
2022-10-03T11:26:25.689Z,19.78
2022-10-03T11:29:42.888Z,19.65
2022-10-03T11:32:47.237Z,19.52
2022-10-03T11:35:58.811Z,19.51
2022-10-03T11:38:35.907Z,19.59
2022-10-03T11:41:19.294Z,19.65
2022-10-03T11:44:15.382Z,19.73
2022-10-03T11:47:16.485Z,19.78
2022-10-03T11:50:20.217Z,19.74
2022-10-03T11:53:08.606Z,19.78
2022-10-03T11:55:46.879Z,19.77
2022-10-03T11:58:36.116Z,19.82
2022-10-03T12:01:25.427Z,19.92
2022-10-03T12:04:05.232Z,19.94
2022-10-03T12:07:18.288Z,19.97
2022-10-03T12:10:02.965Z,19.94
2022-10-03T12:12:43.504Z,19.99
2022-10-03T12:15:31.436Z,20.07
2022-10-03T12:18:11.367Z,20.12
2022-10-03T12:20:59.581Z,20.19
2022-10-03T12:23:51.012Z,20.29
2022-10-03T12:26:32.836Z,20.27
2022-10-03T12:29:09.019Z,20.16
2022-10-03T12:31:49.205Z,20.03
2022-10-03T12:34:39.075Z,19.87
2022-10-03T12:37:43.897Z,19.70
2022-10-03T12:40:25.182Z,19.50
2022-10-03T12:43:12.079Z,19.35
2022-10-03T12:45:49.972Z,19.21
2022-10-03T12:48:43.169Z,19.02
2022-10-03T12:51:24.161Z,18.78
2022-10-03T12:54:08.565Z,18.59
2022-10-03T12:56:50.060Z,18.45
2022-10-03T12:59:38.512Z,18.37
2022-10-03T13:02:30.778Z,18.29
2022-10-03T13:05:31.370Z,18.28
2022-10-03T13:08:07.502Z,18.27
2022-10-03T13:10:43.772Z,18.25
2022-10-03T13:13:30.311Z,18.21
2022-10-03T13:16:21.235Z,18.17
2022-10-03T13:19:06.208Z,18.14
2022-10-03T13:22:06.317Z,18.13
2022-10-03T13:24:46.326Z,18.12
2022-10-03T13:27:33.427Z,18.09
2022-10-03T13:30:15.260Z,18.06
2022-10-03T13:32:49.865Z,18.02
2022-10-03T13:35:56.063Z,18.01
2022-10-03T13:38:55.272Z,18.00
2022-10-03T13:41:39.229Z,18.00
2022-10-03T13:44:22.715Z,18.00
2022-10-03T13:47:03.079Z,18.00
2022-10-03T13:49:40.578Z,18.00
2022-10-03T13:52:23.580Z,18.00
2022-10-03T13:55:19.611Z,18.01
2022-10-03T13:58:07.157Z,18.04
2022-10-03T14:00:52.618Z,18.06
2022-10-03T14:03:35.245Z,18.08
2022-10-03T14:06:20.423Z,18.11
2022-10-03T14:09:21.557Z,18.16
2022-10-03T14:12:01.816Z,18.18
2022-10-03T14:14:58.983Z,18.19
2022-10-03T14:17:41.585Z,18.19
2022-10-03T14:20:29.886Z,18.21
2022-10-03T14:23:16.653Z,18.22
2022-10-03T14:25:58.144Z,18.25
2022-10-03T14:28:41.071Z,18.26
2022-10-03T14:31:20.993Z,18.30
2022-10-03T14:34:00.535Z,18.35
2022-10-03T14:36:42.551Z,18.37
2022-10-03T14:39:29.136Z,18.37
2022-10-03T14:42:25.764Z,18.37
2022-10-03T14:45:01.256Z,18.38
2022-10-03T14:47:39.031Z,18.41
2022-10-03T14:50:18.968Z,18.44
2022-10-03T14:53:02.244Z,18.46
2022-10-03T14:55:40.410Z,18.46
2022-10-03T14:58:22.396Z,18.48
2022-10-03T15:01:03.468Z,18.48
2022-10-03T15:03:40.652Z,18.47
2022-10-03T15:06:37.400Z,18.48
2022-10-03T15:09:13.274Z,18.49
2022-10-03T15:11:52.465Z,18.50
2022-10-03T15:14:27.133Z,18.52
2022-10-03T15:17:01.867Z,18.52
2022-10-03T15:19:44.288Z,18.56
2022-10-03T15:22:29.451Z,18.56
2022-10-03T15:25:07.332Z,18.52
2022-10-03T15:27:43.510Z,18.49
2022-10-03T15:30:27.871Z,18.50
2022-10-03T15:33:15.069Z,18.51
2022-10-03T15:35:52.392Z,18.50
2022-10-03T15:38:27.909Z,18.48
2022-10-03T15:41:12.951Z,18.44
2022-10-03T15:43:57.048Z,18.34
2022-10-03T15:46:37.096Z,18.30
2022-10-03T15:49:26.244Z,18.25
2022-10-03T15:52:01.188Z,18.16
2022-10-03T15:54:38.786Z,18.04
2022-10-03T15:57:20.252Z,17.92
2022-10-03T16:00:02.056Z,17.82
2022-10-03T16:02:38.685Z,17.73
2022-10-03T16:05:20.659Z,17.63
2022-10-03T16:08:03.054Z,17.52
2022-10-03T16:10:42.489Z,17.44
2022-10-03T16:13:28.850Z,17.34
2022-10-03T16:16:12.943Z,17.26
2022-10-03T16:19:01.360Z,17.16
2022-10-03T16:21:49.120Z,17.11
2022-10-03T16:24:32.967Z,17.06
2022-10-03T16:27:13.986Z,16.98
2022-10-03T16:29:54.372Z,16.88
2022-10-03T16:32:31.277Z,16.80
2022-10-03T16:35:04.682Z,16.73
2022-10-03T16:37:42.575Z,16.65
2022-10-03T16:40:23.135Z,16.53
2022-10-03T16:43:00.439Z,16.39
2022-10-03T16:45:36.859Z,16.29
2022-10-03T16:48:37.183Z,16.18
2022-10-03T16:51:17.044Z,16.09
2022-10-03T16:53:52.516Z,16.03
2022-10-03T16:56:28.747Z,15.98
2022-10-03T16:59:13.023Z,15.96
2022-10-03T17:01:51.228Z,15.92
2022-10-03T17:04:28.273Z,15.86
2022-10-03T17:07:03.562Z,15.78
2022-10-03T17:09:42.760Z,15.71
2022-10-03T17:12:23.936Z,15.65
2022-10-03T17:14:58.610Z,15.60
2022-10-03T17:17:38.001Z,15.54
2022-10-03T17:20:16.597Z,15.53
2022-10-03T17:22:56.679Z,15.46
2022-10-03T17:25:45.773Z,15.41
2022-10-03T17:28:23.556Z,15.35
2022-10-03T17:31:00.588Z,15.31
2022-10-03T17:33:41.786Z,15.28
2022-10-03T17:36:49.313Z,15.27
2022-10-03T17:39:33.246Z,15.24
2022-10-03T17:42:17.315Z,15.21
2022-10-03T17:44:59.923Z,15.18
2022-10-03T17:47:44.032Z,15.16
2022-10-03T17:50:21.126Z,15.17
2022-10-03T17:52:55.371Z,15.17
2022-10-03T17:55:31.880Z,15.16
2022-10-03T17:58:07.991Z,15.15
2022-10-03T18:01:02.611Z,15.14
2022-10-03T18:03:39.061Z,15.16
2022-10-03T18:06:38.851Z,15.19
2022-10-03T18:09:23.057Z,15.24
2022-10-03T18:12:04.201Z,15.28
2022-10-03T18:14:57.868Z,15.30
2022-10-03T18:17:41.560Z,15.31
2022-10-03T18:20:32.196Z,15.31
2022-10-03T18:23:09.298Z,15.31
2022-10-03T18:26:19.163Z,15.30
2022-10-03T18:29:01.444Z,15.28
2022-10-03T18:31:36.253Z,15.26
2022-10-03T18:34:15.251Z,15.23
2022-10-03T18:36:49.694Z,15.22
2022-10-03T18:39:26.584Z,15.19
2022-10-03T18:42:02.054Z,15.18
2022-10-03T18:44:36.269Z,15.18
2022-10-03T18:47:21.323Z,15.19
2022-10-03T18:50:05.983Z,15.18
2022-10-03T18:52:46.756Z,15.16
2022-10-03T18:55:26.616Z,15.16
2022-10-03T18:58:05.999Z,15.16
2022-10-03T19:00:52.253Z,15.17
2022-10-03T19:03:32.904Z,15.16
2022-10-03T19:06:08.313Z,15.12
2022-10-03T19:08:44.403Z,15.10
2022-10-03T19:11:27.911Z,15.01
2022-10-03T19:14:10.247Z,14.92
2022-10-03T19:17:10.536Z,14.83
2022-10-03T19:19:58.108Z,14.85
2022-10-03T19:22:35.440Z,14.77
2022-10-03T19:25:19.117Z,14.70
2022-10-03T19:27:58.699Z,14.68
2022-10-03T19:30:33.024Z,14.67
2022-10-03T19:33:08.287Z,14.64
2022-10-03T19:35:47.718Z,14.60
2022-10-03T19:38:24.452Z,14.53
2022-10-03T19:41:01.626Z,14.38
2022-10-03T19:43:43.138Z,14.23
2022-10-03T19:46:25.168Z,14.12
2022-10-03T19:49:32.004Z,14.04
2022-10-03T19:52:25.445Z,13.97
2022-10-03T19:55:03.054Z,13.91
2022-10-03T19:57:42.695Z,13.87
2022-10-03T20:00:28.373Z,13.84
2022-10-03T20:03:16.505Z,13.77
2022-10-03T20:05:58.834Z,13.71
2022-10-03T20:08:39.796Z,13.71
2022-10-03T20:11:30.816Z,13.73
2022-10-03T20:14:04.104Z,13.72
2022-10-03T20:16:45.358Z,13.72
2022-10-03T20:19:24.860Z,13.77
2022-10-03T20:22:04.401Z,13.81
2022-10-03T20:24:40.407Z,13.82
2022-10-03T20:27:25.996Z,13.81
2022-10-03T20:30:21.651Z,13.77
2022-10-03T20:32:56.643Z,13.71
2022-10-03T20:35:33.432Z,13.69
2022-10-03T20:38:14.601Z,13.67
2022-10-03T20:40:53.960Z,13.59
2022-10-03T20:43:41.896Z,13.46
2022-10-03T20:46:26.424Z,13.30
2022-10-03T20:49:24.273Z,13.22
2022-10-03T20:52:02.435Z,13.18
2022-10-03T20:54:48.566Z,13.19
2022-10-03T20:57:20.774Z,13.18
2022-10-03T21:00:04.645Z,13.13
2022-10-03T21:02:49.634Z,13.13
2022-10-03T21:05:26.666Z,13.14
2022-10-03T21:08:02.103Z,13.16
2022-10-03T21:10:38.300Z,13.21
2022-10-03T21:13:16.368Z,13.24
2022-10-03T21:15:53.620Z,13.27
2022-10-03T21:18:28.436Z,13.33
2022-10-03T21:21:13.503Z,13.35
2022-10-03T21:23:51.465Z,13.27
2022-10-03T21:26:26.897Z,13.22
2022-10-03T21:29:19.823Z,13.22
2022-10-03T21:31:58.567Z,13.24
2022-10-03T21:34:40.580Z,13.27
2022-10-03T21:37:19.599Z,13.28
2022-10-03T21:40:06.959Z,13.29
2022-10-03T21:42:53.609Z,13.29
2022-10-03T21:45:37.209Z,13.26
2022-10-03T21:48:20.609Z,13.22
2022-10-03T21:50:58.502Z,13.18
2022-10-03T21:53:42.063Z,13.16
2022-10-03T21:56:29.359Z,13.06
2022-10-03T21:59:16.384Z,12.91
2022-10-03T22:01:56.393Z,12.77
2022-10-03T22:04:36.303Z,12.71
2022-10-03T22:07:15.039Z,12.65
2022-10-03T22:09:55.900Z,12.62
2022-10-03T22:12:32.490Z,12.59
2022-10-03T22:15:11.710Z,12.55
2022-10-03T22:17:51.529Z,12.47
2022-10-03T22:20:26.341Z,12.37
2022-10-03T22:23:16.480Z,12.36
2022-10-03T22:25:59.995Z,12.31
2022-10-03T22:28:42.391Z,12.29
2022-10-03T22:31:23.796Z,12.29
2022-10-03T22:34:08.660Z,12.26
2022-10-03T22:36:42.029Z,12.24
2022-10-03T22:39:16.959Z,12.26
2022-10-03T22:41:54.268Z,12.28
2022-10-03T22:44:32.880Z,12.33
2022-10-03T22:47:08.920Z,12.32
2022-10-03T22:49:44.283Z,12.28
2022-10-03T22:52:22.417Z,12.22
2022-10-03T22:54:56.588Z,12.09
2022-10-03T22:57:33.748Z,12.05
2022-10-03T23:00:13.429Z,12.07
2022-10-03T23:02:50.692Z,12.09
2022-10-03T23:05:34.355Z,12.12
2022-10-03T23:08:16.634Z,12.16
2022-10-03T23:10:56.407Z,12.15
2022-10-03T23:13:36.268Z,12.14
2022-10-03T23:16:20.385Z,12.14
2022-10-03T23:19:10.285Z,12.18
2022-10-03T23:21:49.576Z,12.22
2022-10-03T23:24:30.390Z,12.25
2022-10-03T23:27:36.610Z,12.27
2022-10-03T23:30:54.319Z,12.26
2022-10-03T23:33:53.342Z,12.21
2022-10-03T23:36:26.889Z,12.21
2022-10-03T23:39:01.513Z,12.20
2022-10-03T23:41:57.381Z,12.20
2022-10-03T23:44:35.662Z,12.12
2022-10-03T23:47:11.770Z,12.10
2022-10-03T23:49:47.443Z,12.14
2022-10-03T23:52:25.224Z,12.21
2022-10-03T23:55:02.539Z,12.27
2022-10-03T23:57:39.624Z,12.30
